sensor_id;sensor_type;location;lat;lon;timestamp;temperature;humidity
8856;DHT22;4464;50.882;4.730;2023-04-25T00:01:32;8.50;99.90
8856;DHT22;4464;50.882;4.730;2023-04-25T00:04:02;8.50;99.90
8856;DHT22;4464;50.882;4.730;2023-04-25T00:06:28;8.50;99.90
8856;DHT22;4464;50.882;4.730;2023-04-25T00:08:55;8.60;99.90
8856;DHT22;4464;50.882;4.730;2023-04-25T00:11:22;8.70;99.90
8856;DHT22;4464;50.882;4.730;2023-04-25T00:13:48;8.70;99.90
8856;DHT22;4464;50.882;4.730;2023-04-25T00:16:15;8.70;99.90
8856;DHT22;4464;50.882;4.730;2023-04-25T00:18:44;8.60;99.90
8856;DHT22;4464;50.882;4.730;2023-04-25T00:21:13;8.60;99.90
8856;DHT22;4464;50.882;4.730;2023-04-25T00:23:40;8.60;99.90
8856;DHT22;4464;50.882;4.730;2023-04-25T00:26:08;8.60;99.90
8856;DHT22;4464;50.882;4.730;2023-04-25T00:28:38;8.60;99.90
8856;DHT22;4464;50.882;4.730;2023-04-25T00:31:04;8.80;99.90
8856;DHT22;4464;50.882;4.730;2023-04-25T00:33:30;8.80;99.90
8856;DHT22;4464;50.882;4.730;2023-04-25T00:36:00;8.90;99.90
8856;DHT22;4464;50.882;4.730;2023-04-25T00:38:26;8.90;99.90
8856;DHT22;4464;50.882;4.730;2023-04-25T00:40:51;8.90;99.90
8856;DHT22;4464;50.882;4.730;2023-04-25T00:43:26;8.70;99.90
8856;DHT22;4464;50.882;4.730;2023-04-25T00:45:56;8.70;99.90
8856;DHT22;4464;50.882;4.730;2023-04-25T00:48:25;8.60;99.90
8856;DHT22;4464;50.882;4.730;2023-04-25T00:50:53;8.50;99.90
8856;DHT22;4464;50.882;4.730;2023-04-25T00:53:20;8.50;99.90
8856;DHT22;4464;50.882;4.730;2023-04-25T00:55:47;8.50;99.90
8856;DHT22;4464;50.882;4.730;2023-04-25T00:58:13;8.50;99.90
8856;DHT22;4464;50.882;4.730;2023-04-25T01:00:41;8.50;99.90
8856;DHT22;4464;50.882;4.730;2023-04-25T01:03:10;8.50;99.90
8856;DHT22;4464;50.882;4.730;2023-04-25T01:05:35;8.50;99.90
8856;DHT22;4464;50.882;4.730;2023-04-25T01:08:03;8.50;99.90
8856;DHT22;4464;50.882;4.730;2023-04-25T01:10:29;8.50;99.90
8856;DHT22;4464;50.882;4.730;2023-04-25T01:12:55;8.50;99.90
8856;DHT22;4464;50.882;4.730;2023-04-25T01:15:21;8.50;99.90
8856;DHT22;4464;50.882;4.730;2023-04-25T01:17:46;8.40;99.90
8856;DHT22;4464;50.882;4.730;2023-04-25T01:20:14;8.40;99.90
8856;DHT22;4464;50.882;4.730;2023-04-25T01:22:39;8.50;99.90
8856;DHT22;4464;50.882;4.730;2023-04-25T01:25:06;8.60;99.90
8856;DHT22;4464;50.882;4.730;2023-04-25T01:27:36;8.50;99.90
8856;DHT22;4464;50.882;4.730;2023-04-25T01:30:02;8.50;99.90
8856;DHT22;4464;50.882;4.730;2023-04-25T01:32:29;8.50;99.90
8856;DHT22;4464;50.882;4.730;2023-04-25T01:35:05;8.60;99.90
8856;DHT22;4464;50.882;4.730;2023-04-25T01:37:38;8.70;99.90
8856;DHT22;4464;50.882;4.730;2023-04-25T01:40:05;8.60;99.90
8856;DHT22;4464;50.882;4.730;2023-04-25T01:42:36;8.60;99.90
8856;DHT22;4464;50.882;4.730;2023-04-25T01:45:03;8.50;99.90
8856;DHT22;4464;50.882;4.730;2023-04-25T01:47:31;8.30;99.90
8856;DHT22;4464;50.882;4.730;2023-04-25T01:49:57;8.30;99.90
8856;DHT22;4464;50.882;4.730;2023-04-25T01:52:22;8.30;99.90
8856;DHT22;4464;50.882;4.730;2023-04-25T01:54:49;8.20;99.90
8856;DHT22;4464;50.882;4.730;2023-04-25T01:57:22;8.30;99.90
8856;DHT22;4464;50.882;4.730;2023-04-25T01:59:48;8.20;99.90
8856;DHT22;4464;50.882;4.730;2023-04-25T02:02:14;8.20;99.90
8856;DHT22;4464;50.882;4.730;2023-04-25T02:04:40;8.30;99.90
8856;DHT22;4464;50.882;4.730;2023-04-25T02:07:05;8.20;99.90
8856;DHT22;4464;50.882;4.730;2023-04-25T02:09:31;8.20;99.90
8856;DHT22;4464;50.882;4.730;2023-04-25T02:11:57;8.20;99.90
8856;DHT22;4464;50.882;4.730;2023-04-25T02:14:23;8.20;99.90
8856;DHT22;4464;50.882;4.730;2023-04-25T02:16:49;8.20;99.90
8856;DHT22;4464;50.882;4.730;2023-04-25T02:19:16;8.20;99.90
8856;DHT22;4464;50.882;4.730;2023-04-25T02:21:42;8.20;99.90
8856;DHT22;4464;50.882;4.730;2023-04-25T02:24:08;8.30;99.90
8856;DHT22;4464;50.882;4.730;2023-04-25T02:26:34;8.30;99.90
8856;DHT22;4464;50.882;4.730;2023-04-25T02:29:00;8.20;99.90
8856;DHT22;4464;50.882;4.730;2023-04-25T02:31:26;8.20;99.90
8856;DHT22;4464;50.882;4.730;2023-04-25T02:33:54;8.20;99.90
8856;DHT22;4464;50.882;4.730;2023-04-25T02:36:20;8.40;99.90
8856;DHT22;4464;50.882;4.730;2023-04-25T02:38:45;8.40;99.90
8856;DHT22;4464;50.882;4.730;2023-04-25T02:41:11;8.50;99.90
8856;DHT22;4464;50.882;4.730;2023-04-25T02:43:36;8.50;99.90
8856;DHT22;4464;50.882;4.730;2023-04-25T02:46:03;8.60;99.90
8856;DHT22;4464;50.882;4.730;2023-04-25T02:48:29;8.50;99.90
8856;DHT22;4464;50.882;4.730;2023-04-25T02:50:57;8.50;99.90
8856;DHT22;4464;50.882;4.730;2023-04-25T02:53:22;8.30;99.90
8856;DHT22;4464;50.882;4.730;2023-04-25T02:55:48;8.40;99.90
8856;DHT22;4464;50.882;4.730;2023-04-25T02:58:18;8.40;99.90
8856;DHT22;4464;50.882;4.730;2023-04-25T03:00:43;8.50;99.90
8856;DHT22;4464;50.882;4.730;2023-04-25T03:03:10;8.40;99.90
8856;DHT22;4464;50.882;4.730;2023-04-25T03:05:36;8.40;99.90
8856;DHT22;4464;50.882;4.730;2023-04-25T03:08:02;8.50;99.90
8856;DHT22;4464;50.882;4.730;2023-04-25T03:10:30;8.50;99.90
8856;DHT22;4464;50.882;4.730;2023-04-25T03:12:56;8.50;99.90
8856;DHT22;4464;50.882;4.730;2023-04-25T03:15:26;8.50;99.90
8856;DHT22;4464;50.882;4.730;2023-04-25T03:17:55;8.40;99.90
8856;DHT22;4464;50.882;4.730;2023-04-25T03:20:22;8.40;99.90
8856;DHT22;4464;50.882;4.730;2023-04-25T03:22:48;8.30;99.90
8856;DHT22;4464;50.882;4.730;2023-04-25T03:25:14;8.40;99.90
8856;DHT22;4464;50.882;4.730;2023-04-25T03:27:40;8.30;99.90
8856;DHT22;4464;50.882;4.730;2023-04-25T03:30:08;8.20;99.90
8856;DHT22;4464;50.882;4.730;2023-04-25T03:32:34;8.10;99.90
8856;DHT22;4464;50.882;4.730;2023-04-25T03:35:00;8.10;99.90
8856;DHT22;4464;50.882;4.730;2023-04-25T03:37:28;8.00;99.90
8856;DHT22;4464;50.882;4.730;2023-04-25T03:39:54;8.00;99.90
8856;DHT22;4464;50.882;4.730;2023-04-25T03:42:22;8.00;99.90
8856;DHT22;4464;50.882;4.730;2023-04-25T03:44:51;8.00;99.90
8856;DHT22;4464;50.882;4.730;2023-04-25T03:47:18;7.80;99.90
8856;DHT22;4464;50.882;4.730;2023-04-25T03:49:46;7.80;99.90
8856;DHT22;4464;50.882;4.730;2023-04-25T03:52:12;7.70;99.90
8856;DHT22;4464;50.882;4.730;2023-04-25T03:54:38;7.70;99.90
8856;DHT22;4464;50.882;4.730;2023-04-25T03:57:03;7.60;99.90
8856;DHT22;4464;50.882;4.730;2023-04-25T03:59:29;7.60;99.90
8856;DHT22;4464;50.882;4.730;2023-04-25T04:01:58;7.60;99.90
8856;DHT22;4464;50.882;4.730;2023-04-25T04:04:23;7.50;99.90
8856;DHT22;4464;50.882;4.730;2023-04-25T04:06:51;7.50;99.90
8856;DHT22;4464;50.882;4.730;2023-04-25T04:09:18;7.60;99.90
8856;DHT22;4464;50.882;4.730;2023-04-25T04:11:47;7.50;99.90
8856;DHT22;4464;50.882;4.730;2023-04-25T04:14:13;7.40;99.90
8856;DHT22;4464;50.882;4.730;2023-04-25T04:16:38;7.40;99.90
8856;DHT22;4464;50.882;4.730;2023-04-25T04:19:07;7.30;99.90
8856;DHT22;4464;50.882;4.730;2023-04-25T04:21:34;7.30;99.90
8856;DHT22;4464;50.882;4.730;2023-04-25T04:24:00;7.40;99.90
8856;DHT22;4464;50.882;4.730;2023-04-25T04:26:26;7.40;99.90
8856;DHT22;4464;50.882;4.730;2023-04-25T04:28:52;7.40;99.90
8856;DHT22;4464;50.882;4.730;2023-04-25T04:31:23;7.50;99.90
8856;DHT22;4464;50.882;4.730;2023-04-25T04:33:52;7.60;99.90
8856;DHT22;4464;50.882;4.730;2023-04-25T04:36:17;7.70;99.90
8856;DHT22;4464;50.882;4.730;2023-04-25T04:38:47;7.70;99.90
8856;DHT22;4464;50.882;4.730;2023-04-25T04:41:13;7.60;99.90
8856;DHT22;4464;50.882;4.730;2023-04-25T04:43:38;7.70;99.90
8856;DHT22;4464;50.882;4.730;2023-04-25T04:46:05;7.70;99.90
8856;DHT22;4464;50.882;4.730;2023-04-25T04:48:33;7.60;99.90
8856;DHT22;4464;50.882;4.730;2023-04-25T04:51:00;7.60;99.90
8856;DHT22;4464;50.882;4.730;2023-04-25T04:53:26;7.60;99.90
8856;DHT22;4464;50.882;4.730;2023-04-25T04:55:51;7.60;99.90
8856;DHT22;4464;50.882;4.730;2023-04-25T04:58:19;7.60;99.90
8856;DHT22;4464;50.882;4.730;2023-04-25T05:00:47;7.50;99.90
8856;DHT22;4464;50.882;4.730;2023-04-25T05:03:17;7.50;99.90
8856;DHT22;4464;50.882;4.730;2023-04-25T05:05:43;7.50;99.90
8856;DHT22;4464;50.882;4.730;2023-04-25T05:08:08;7.50;99.90
8856;DHT22;4464;50.882;4.730;2023-04-25T05:10:34;7.50;99.90
8856;DHT22;4464;50.882;4.730;2023-04-25T05:13:03;7.60;99.90
8856;DHT22;4464;50.882;4.730;2023-04-25T05:15:28;7.50;99.90
8856;DHT22;4464;50.882;4.730;2023-04-25T05:17:57;7.60;99.90
8856;DHT22;4464;50.882;4.730;2023-04-25T05:20:23;7.60;99.90
8856;DHT22;4464;50.882;4.730;2023-04-25T05:22:48;7.60;99.90
8856;DHT22;4464;50.882;4.730;2023-04-25T05:25:16;7.50;99.90
8856;DHT22;4464;50.882;4.730;2023-04-25T05:27:42;7.50;99.90
8856;DHT22;4464;50.882;4.730;2023-04-25T05:30:12;7.60;99.90
8856;DHT22;4464;50.882;4.730;2023-04-25T05:32:38;7.60;99.90
8856;DHT22;4464;50.882;4.730;2023-04-25T05:35:04;7.70;99.90
8856;DHT22;4464;50.882;4.730;2023-04-25T05:37:31;7.80;99.90
8856;DHT22;4464;50.882;4.730;2023-04-25T05:39:58;7.90;99.90
8856;DHT22;4464;50.882;4.730;2023-04-25T05:42:28;7.90;99.90
8856;DHT22;4464;50.882;4.730;2023-04-25T05:44:56;8.00;99.90
8856;DHT22;4464;50.882;4.730;2023-04-25T05:47:21;7.90;99.90
8856;DHT22;4464;50.882;4.730;2023-04-25T05:49:47;7.90;99.90
8856;DHT22;4464;50.882;4.730;2023-04-25T05:52:15;8.00;99.90
8856;DHT22;4464;50.882;4.730;2023-04-25T05:54:40;7.90;99.90
8856;DHT22;4464;50.882;4.730;2023-04-25T05:57:06;7.80;99.90
8856;DHT22;4464;50.882;4.730;2023-04-25T05:59:32;7.90;99.90
8856;DHT22;4464;50.882;4.730;2023-04-25T06:01:57;7.70;99.90
8856;DHT22;4464;50.882;4.730;2023-04-25T06:04:25;7.70;99.90
8856;DHT22;4464;50.882;4.730;2023-04-25T06:06:51;7.80;99.90
8856;DHT22;4464;50.882;4.730;2023-04-25T06:09:16;7.80;99.90
8856;DHT22;4464;50.882;4.730;2023-04-25T06:11:42;7.70;99.90
8856;DHT22;4464;50.882;4.730;2023-04-25T06:14:10;7.70;99.90
8856;DHT22;4464;50.882;4.730;2023-04-25T06:16:38;7.80;99.90
8856;DHT22;4464;50.882;4.730;2023-04-25T06:19:03;7.90;99.90
8856;DHT22;4464;50.882;4.730;2023-04-25T06:21:29;8.00;99.90
8856;DHT22;4464;50.882;4.730;2023-04-25T06:23:55;8.10;99.90
8856;DHT22;4464;50.882;4.730;2023-04-25T06:26:21;8.20;99.90
8856;DHT22;4464;50.882;4.730;2023-04-25T06:28:46;8.20;99.90
8856;DHT22;4464;50.882;4.730;2023-04-25T06:31:12;8.40;99.90
8856;DHT22;4464;50.882;4.730;2023-04-25T06:33:38;8.40;99.90
8856;DHT22;4464;50.882;4.730;2023-04-25T06:36:03;8.50;99.90
8856;DHT22;4464;50.882;4.730;2023-04-25T06:38:29;8.50;99.90
8856;DHT22;4464;50.882;4.730;2023-04-25T06:40:55;8.60;99.90
8856;DHT22;4464;50.882;4.730;2023-04-25T06:43:23;8.80;99.90
8856;DHT22;4464;50.882;4.730;2023-04-25T06:45:48;8.80;99.90
8856;DHT22;4464;50.882;4.730;2023-04-25T06:48:14;8.90;99.90
8856;DHT22;4464;50.882;4.730;2023-04-25T06:50:40;8.70;99.90
8856;DHT22;4464;50.882;4.730;2023-04-25T06:53:09;8.60;99.90
8856;DHT22;4464;50.882;4.730;2023-04-25T06:55:34;8.60;99.90
8856;DHT22;4464;50.882;4.730;2023-04-25T06:58:02;8.70;99.90
8856;DHT22;4464;50.882;4.730;2023-04-25T07:00:30;8.80;99.90
8856;DHT22;4464;50.882;4.730;2023-04-25T07:02:57;8.90;99.90
8856;DHT22;4464;50.882;4.730;2023-04-25T07:05:25;8.80;99.90
8856;DHT22;4464;50.882;4.730;2023-04-25T07:07:50;8.70;99.90
8856;DHT22;4464;50.882;4.730;2023-04-25T07:10:16;8.70;99.90
8856;DHT22;4464;50.882;4.730;2023-04-25T07:12:42;8.70;99.90
8856;DHT22;4464;50.882;4.730;2023-04-25T07:15:10;8.60;99.90
8856;DHT22;4464;50.882;4.730;2023-04-25T07:17:37;8.50;99.90
8856;DHT22;4464;50.882;4.730;2023-04-25T07:20:06;8.60;99.90
8856;DHT22;4464;50.882;4.730;2023-04-25T07:22:34;8.50;99.90
8856;DHT22;4464;50.882;4.730;2023-04-25T07:25:02;8.60;99.90
8856;DHT22;4464;50.882;4.730;2023-04-25T07:27:30;8.90;99.90
8856;DHT22;4464;50.882;4.730;2023-04-25T07:29:58;9.00;99.90
8856;DHT22;4464;50.882;4.730;2023-04-25T07:32:28;8.80;99.90
8856;DHT22;4464;50.882;4.730;2023-04-25T07:34:54;8.70;99.90
8856;DHT22;4464;50.882;4.730;2023-04-25T07:37:20;8.80;99.90
8856;DHT22;4464;50.882;4.730;2023-04-25T07:39:46;8.90;99.90
8856;DHT22;4464;50.882;4.730;2023-04-25T07:42:12;8.90;99.90
8856;DHT22;4464;50.882;4.730;2023-04-25T07:44:40;8.90;99.90
8856;DHT22;4464;50.882;4.730;2023-04-25T07:47:07;9.00;99.90
8856;DHT22;4464;50.882;4.730;2023-04-25T07:49:36;9.10;99.90
8856;DHT22;4464;50.882;4.730;2023-04-25T07:52:05;9.40;99.90
8856;DHT22;4464;50.882;4.730;2023-04-25T07:54:34;9.80;99.90
8856;DHT22;4464;50.882;4.730;2023-04-25T07:57:02;9.80;99.90
8856;DHT22;4464;50.882;4.730;2023-04-25T07:59:28;10.00;99.90
8856;DHT22;4464;50.882;4.730;2023-04-25T08:01:55;9.50;99.90
8856;DHT22;4464;50.882;4.730;2023-04-25T08:04:24;9.50;99.90
8856;DHT22;4464;50.882;4.730;2023-04-25T08:06:51;9.30;99.90
8856;DHT22;4464;50.882;4.730;2023-04-25T08:09:17;9.30;99.90
8856;DHT22;4464;50.882;4.730;2023-04-25T08:11:43;9.30;99.90
8856;DHT22;4464;50.882;4.730;2023-04-25T08:14:14;9.30;99.90
8856;DHT22;4464;50.882;4.730;2023-04-25T08:16:39;9.50;99.90
8856;DHT22;4464;50.882;4.730;2023-04-25T08:19:07;9.30;99.90
8856;DHT22;4464;50.882;4.730;2023-04-25T08:21:33;9.10;99.90
8856;DHT22;4464;50.882;4.730;2023-04-25T08:24:01;8.90;99.90
8856;DHT22;4464;50.882;4.730;2023-04-25T08:26:28;9.00;99.90
8856;DHT22;4464;50.882;4.730;2023-04-25T08:28:54;8.90;99.90
8856;DHT22;4464;50.882;4.730;2023-04-25T08:31:23;8.80;99.90
8856;DHT22;4464;50.882;4.730;2023-04-25T08:33:48;8.70;99.90
8856;DHT22;4464;50.882;4.730;2023-04-25T08:36:17;8.60;99.90
8856;DHT22;4464;50.882;4.730;2023-04-25T08:38:44;8.60;99.90
8856;DHT22;4464;50.882;4.730;2023-04-25T08:41:11;8.60;99.90
8856;DHT22;4464;50.882;4.730;2023-04-25T08:43:37;8.60;99.90
8856;DHT22;4464;50.882;4.730;2023-04-25T08:46:05;8.60;99.90
8856;DHT22;4464;50.882;4.730;2023-04-25T08:48:32;8.60;99.90
8856;DHT22;4464;50.882;4.730;2023-04-25T08:51:01;8.50;99.90
8856;DHT22;4464;50.882;4.730;2023-04-25T08:53:32;8.40;99.90
8856;DHT22;4464;50.882;4.730;2023-04-25T08:56:00;8.50;99.90
8856;DHT22;4464;50.882;4.730;2023-04-25T08:58:32;8.50;99.90
8856;DHT22;4464;50.882;4.730;2023-04-25T09:00:59;8.60;99.90
8856;DHT22;4464;50.882;4.730;2023-04-25T09:03:27;8.80;99.90
8856;DHT22;4464;50.882;4.730;2023-04-25T09:05:54;8.90;99.90
8856;DHT22;4464;50.882;4.730;2023-04-25T09:08:23;9.10;99.90
8856;DHT22;4464;50.882;4.730;2023-04-25T09:10:53;9.30;99.90
8856;DHT22;4464;50.882;4.730;2023-04-25T09:13:26;9.40;99.90
8856;DHT22;4464;50.882;4.730;2023-04-25T09:15:54;10.40;99.90
8856;DHT22;4464;50.882;4.730;2023-04-25T09:18:28;12.00;99.90
8856;DHT22;4464;50.882;4.730;2023-04-25T09:20:56;13.30;99.90
8856;DHT22;4464;50.882;4.730;2023-04-25T09:23:22;14.20;99.90
8856;DHT22;4464;50.882;4.730;2023-04-25T09:25:55;14.90;99.90
8856;DHT22;4464;50.882;4.730;2023-04-25T09:28:25;15.30;99.30
8856;DHT22;4464;50.882;4.730;2023-04-25T09:30:57;14.50;98.60
8856;DHT22;4464;50.882;4.730;2023-04-25T09:33:31;12.50;99.10
8856;DHT22;4464;50.882;4.730;2023-04-25T09:36:08;11.40;99.90
8856;DHT22;4464;50.882;4.730;2023-04-25T09:38:47;10.60;99.90
8856;DHT22;4464;50.882;4.730;2023-04-25T09:41:15;10.30;99.90
8856;DHT22;4464;50.882;4.730;2023-04-25T09:43:49;9.90;99.90
8856;DHT22;4464;50.882;4.730;2023-04-25T09:46:15;9.70;99.90
8856;DHT22;4464;50.882;4.730;2023-04-25T09:48:48;9.70;99.90
8856;DHT22;4464;50.882;4.730;2023-04-25T09:51:14;9.70;99.90
8856;DHT22;4464;50.882;4.730;2023-04-25T09:53:42;9.70;99.90
8856;DHT22;4464;50.882;4.730;2023-04-25T09:56:10;9.50;99.90
8856;DHT22;4464;50.882;4.730;2023-04-25T09:58:38;9.60;99.90
8856;DHT22;4464;50.882;4.730;2023-04-25T10:01:09;9.70;99.90
8856;DHT22;4464;50.882;4.730;2023-04-25T10:03:37;9.70;99.90
8856;DHT22;4464;50.882;4.730;2023-04-25T10:06:12;9.60;99.90
8856;DHT22;4464;50.882;4.730;2023-04-25T10:08:40;9.70;99.90
8856;DHT22;4464;50.882;4.730;2023-04-25T10:11:08;10.50;99.90
8856;DHT22;4464;50.882;4.730;2023-04-25T10:13:40;11.70;99.90
8856;DHT22;4464;50.882;4.730;2023-04-25T10:16:09;12.20;99.40
8856;DHT22;4464;50.882;4.730;2023-04-25T10:18:38;13.50;98.10
8856;DHT22;4464;50.882;4.730;2023-04-25T10:21:05;15.60;95.10
8856;DHT22;4464;50.882;4.730;2023-04-25T10:23:34;17.40;92.80
8856;DHT22;4464;50.882;4.730;2023-04-25T10:26:05;17.90;88.90
8856;DHT22;4464;50.882;4.730;2023-04-25T10:29:01;18.50;85.40
8856;DHT22;4464;50.882;4.730;2023-04-25T10:31:30;18.90;84.20
8856;DHT22;4464;50.882;4.730;2023-04-25T10:33:56;15.70;87.30
8856;DHT22;4464;50.882;4.730;2023-04-25T10:36:24;14.20;90.70
8856;DHT22;4464;50.882;4.730;2023-04-25T10:38:52;13.20;91.30
8856;DHT22;4464;50.882;4.730;2023-04-25T10:41:20;12.40;92.20
8856;DHT22;4464;50.882;4.730;2023-04-25T10:43:47;12.20;92.50
8856;DHT22;4464;50.882;4.730;2023-04-25T10:48:52;12.60;94.10
8856;DHT22;4464;50.882;4.730;2023-04-25T10:51:27;13.50;92.50
8856;DHT22;4464;50.882;4.730;2023-04-25T10:53:57;13.80;91.20
8856;DHT22;4464;50.882;4.730;2023-04-25T10:56:29;15.50;91.50
8856;DHT22;4464;50.882;4.730;2023-04-25T11:01:51;19.50;82.10
8856;DHT22;4464;50.882;4.730;2023-04-25T11:04:30;20.10;77.10
8856;DHT22;4464;50.882;4.730;2023-04-25T11:09:33;17.30;82.30
8856;DHT22;4464;50.882;4.730;2023-04-25T11:11:59;15.50;84.50
8856;DHT22;4464;50.882;4.730;2023-04-25T11:14:28;13.30;89.50
8856;DHT22;4464;50.882;4.730;2023-04-25T11:16:54;12.80;90.40
8856;DHT22;4464;50.882;4.730;2023-04-25T11:19:29;12.90;91.60
8856;DHT22;4464;50.882;4.730;2023-04-25T11:21:58;12.70;91.60
8856;DHT22;4464;50.882;4.730;2023-04-25T11:24:30;12.30;93.00
8856;DHT22;4464;50.882;4.730;2023-04-25T11:26:57;12.00;93.40
8856;DHT22;4464;50.882;4.730;2023-04-25T11:29:26;11.80;93.80
8856;DHT22;4464;50.882;4.730;2023-04-25T11:31:52;11.50;94.60
8856;DHT22;4464;50.882;4.730;2023-04-25T11:34:19;11.20;94.30
8856;DHT22;4464;50.882;4.730;2023-04-25T11:36:45;11.10;94.70
8856;DHT22;4464;50.882;4.730;2023-04-25T11:39:11;11.00;95.30
8856;DHT22;4464;50.882;4.730;2023-04-25T11:41:40;11.40;96.10
8856;DHT22;4464;50.882;4.730;2023-04-25T11:44:06;11.40;95.10
8856;DHT22;4464;50.882;4.730;2023-04-25T11:46:34;11.70;94.80
8856;DHT22;4464;50.882;4.730;2023-04-25T11:49:00;12.00;93.70
8856;DHT22;4464;50.882;4.730;2023-04-25T11:51:26;12.50;93.30
8856;DHT22;4464;50.882;4.730;2023-04-25T11:53:54;13.70;92.50
8856;DHT22;4464;50.882;4.730;2023-04-25T11:56:20;13.20;91.70
8856;DHT22;4464;50.882;4.730;2023-04-25T11:58:56;12.70;91.90
8856;DHT22;4464;50.882;4.730;2023-04-25T12:01:30;12.60;91.90
8856;DHT22;4464;50.882;4.730;2023-04-25T12:03:59;13.60;91.40
8856;DHT22;4464;50.882;4.730;2023-04-25T12:06:37;15.40;91.10
8856;DHT22;4464;50.882;4.730;2023-04-25T12:09:08;15.20;90.10
8856;DHT22;4464;50.882;4.730;2023-04-25T12:11:53;13.90;91.80
8856;DHT22;4464;50.882;4.730;2023-04-25T12:14:27;12.50;91.10
8856;DHT22;4464;50.882;4.730;2023-04-25T12:16:56;12.00;92.00
8856;DHT22;4464;50.882;4.730;2023-04-25T12:19:23;11.70;92.20
8856;DHT22;4464;50.882;4.730;2023-04-25T12:21:50;11.80;92.30
8856;DHT22;4464;50.882;4.730;2023-04-25T12:24:23;11.90;92.10
8856;DHT22;4464;50.882;4.730;2023-04-25T12:27:05;12.70;92.80
8856;DHT22;4464;50.882;4.730;2023-04-25T12:29:32;14.70;91.00
8856;DHT22;4464;50.882;4.730;2023-04-25T12:31:59;14.00;89.80
8856;DHT22;4464;50.882;4.730;2023-04-25T12:34:27;13.30;86.60
8856;DHT22;4464;50.882;4.730;2023-04-25T12:36:54;12.50;89.40
8856;DHT22;4464;50.882;4.730;2023-04-25T12:39:24;13.20;90.40
8856;DHT22;4464;50.882;4.730;2023-04-25T12:41:53;14.90;87.60
8856;DHT22;4464;50.882;4.730;2023-04-25T12:44:21;15.80;87.20
8856;DHT22;4464;50.882;4.730;2023-04-25T12:46:48;14.60;85.80
8856;DHT22;4464;50.882;4.730;2023-04-25T12:49:13;13.10;84.50
8856;DHT22;4464;50.882;4.730;2023-04-25T12:51:40;12.40;86.40
8856;DHT22;4464;50.882;4.730;2023-04-25T12:54:11;13.70;86.50
8856;DHT22;4464;50.882;4.730;2023-04-25T12:56:37;15.50;84.10
8856;DHT22;4464;50.882;4.730;2023-04-25T12:59:05;16.70;83.60
8856;DHT22;4464;50.882;4.730;2023-04-25T13:01:30;16.80;80.20
8856;DHT22;4464;50.882;4.730;2023-04-25T13:03:58;16.70;78.80
8856;DHT22;4464;50.882;4.730;2023-04-25T13:06:24;17.50;77.80
8856;DHT22;4464;50.882;4.730;2023-04-25T13:08:52;15.90;78.10
8856;DHT22;4464;50.882;4.730;2023-04-25T13:11:18;14.70;82.90
8856;DHT22;4464;50.882;4.730;2023-04-25T13:13:44;13.90;84.40
8856;DHT22;4464;50.882;4.730;2023-04-25T13:16:10;13.60;85.90
8856;DHT22;4464;50.882;4.730;2023-04-25T13:18:36;13.50;87.40
8856;DHT22;4464;50.882;4.730;2023-04-25T13:21:02;13.10;90.30
8856;DHT22;4464;50.882;4.730;2023-04-25T13:23:31;12.50;91.30
8856;DHT22;4464;50.882;4.730;2023-04-25T13:25:59;12.20;91.80
8856;DHT22;4464;50.882;4.730;2023-04-25T13:28:27;12.00;92.10
8856;DHT22;4464;50.882;4.730;2023-04-25T13:30:53;13.10;93.00
8856;DHT22;4464;50.882;4.730;2023-04-25T13:33:19;15.60;91.00
8856;DHT22;4464;50.882;4.730;2023-04-25T13:35:47;17.00;87.50
8856;DHT22;4464;50.882;4.730;2023-04-25T13:38:21;18.00;85.30
8856;DHT22;4464;50.882;4.730;2023-04-25T13:40:48;17.20;82.80
8856;DHT22;4464;50.882;4.730;2023-04-25T13:43:17;17.40;82.30
8856;DHT22;4464;50.882;4.730;2023-04-25T13:45:43;18.50;79.90
8856;DHT22;4464;50.882;4.730;2023-04-25T13:48:08;17.70;77.40
8856;DHT22;4464;50.882;4.730;2023-04-25T13:50:34;15.70;79.40
8856;DHT22;4464;50.882;4.730;2023-04-25T13:53:00;15.40;82.40
8856;DHT22;4464;50.882;4.730;2023-04-25T13:55:26;16.30;81.40
8856;DHT22;4464;50.882;4.730;2023-04-25T13:57:52;16.90;79.90
8856;DHT22;4464;50.882;4.730;2023-04-25T14:00:17;18.00;78.90
8856;DHT22;4464;50.882;4.730;2023-04-25T14:02:43;18.60;77.30
8856;DHT22;4464;50.882;4.730;2023-04-25T14:05:09;19.30;75.00
8856;DHT22;4464;50.882;4.730;2023-04-25T14:07:35;18.40;76.00
8856;DHT22;4464;50.882;4.730;2023-04-25T14:10:01;18.00;77.40
8856;DHT22;4464;50.882;4.730;2023-04-25T14:12:27;18.30;75.80
8856;DHT22;4464;50.882;4.730;2023-04-25T14:14:53;17.30;77.00
8856;DHT22;4464;50.882;4.730;2023-04-25T14:17:19;16.40;78.10
8856;DHT22;4464;50.882;4.730;2023-04-25T14:19:49;16.40;78.00
8856;DHT22;4464;50.882;4.730;2023-04-25T14:22:15;17.00;78.00
8856;DHT22;4464;50.882;4.730;2023-04-25T14:24:41;17.50;77.00
8856;DHT22;4464;50.882;4.730;2023-04-25T14:27:09;19.00;76.50
8856;DHT22;4464;50.882;4.730;2023-04-25T14:29:35;20.10;72.60
8856;DHT22;4464;50.882;4.730;2023-04-25T14:32:01;18.60;75.10
8856;DHT22;4464;50.882;4.730;2023-04-25T14:34:29;19.70;75.20
8856;DHT22;4464;50.882;4.730;2023-04-25T14:36:57;20.10;72.90
8856;DHT22;4464;50.882;4.730;2023-04-25T14:39:23;17.50;73.50
8856;DHT22;4464;50.882;4.730;2023-04-25T14:41:48;15.80;76.80
8856;DHT22;4464;50.882;4.730;2023-04-25T14:44:14;15.60;78.30
8856;DHT22;4464;50.882;4.730;2023-04-25T14:46:40;15.60;79.60
8856;DHT22;4464;50.882;4.730;2023-04-25T14:49:06;15.80;79.10
8856;DHT22;4464;50.882;4.730;2023-04-25T14:51:33;15.60;77.10
8856;DHT22;4464;50.882;4.730;2023-04-25T14:54:01;15.30;78.70
8856;DHT22;4464;50.882;4.730;2023-04-25T14:56:27;15.10;79.60
8856;DHT22;4464;50.882;4.730;2023-04-25T14:58:55;16.70;79.30
8856;DHT22;4464;50.882;4.730;2023-04-25T15:01:21;18.10;77.00
8856;DHT22;4464;50.882;4.730;2023-04-25T15:03:47;19.20;74.30
8856;DHT22;4464;50.882;4.730;2023-04-25T15:06:13;18.00;74.30
8856;DHT22;4464;50.882;4.730;2023-04-25T15:08:42;17.00;75.70
8856;DHT22;4464;50.882;4.730;2023-04-25T15:11:07;15.90;77.80
8856;DHT22;4464;50.882;4.730;2023-04-25T15:13:33;14.70;80.00
8856;DHT22;4464;50.882;4.730;2023-04-25T15:16:00;14.10;82.30
8856;DHT22;4464;50.882;4.730;2023-04-25T15:18:25;13.90;83.20
8856;DHT22;4464;50.882;4.730;2023-04-25T15:20:52;13.60;84.60
8856;DHT22;4464;50.882;4.730;2023-04-25T15:23:19;13.80;85.50
8856;DHT22;4464;50.882;4.730;2023-04-25T15:25:50;14.00;84.90
8856;DHT22;4464;50.882;4.730;2023-04-25T15:28:18;14.00;83.70
8856;DHT22;4464;50.882;4.730;2023-04-25T15:30:46;13.60;83.50
8856;DHT22;4464;50.882;4.730;2023-04-25T15:33:12;12.90;83.70
8856;DHT22;4464;50.882;4.730;2023-04-25T15:35:38;12.40;83.40
8856;DHT22;4464;50.882;4.730;2023-04-25T15:38:07;12.30;85.00
8856;DHT22;4464;50.882;4.730;2023-04-25T15:40:33;12.10;83.90
8856;DHT22;4464;50.882;4.730;2023-04-25T15:42:59;12.00;84.50
8856;DHT22;4464;50.882;4.730;2023-04-25T15:45:25;11.90;86.10
8856;DHT22;4464;50.882;4.730;2023-04-25T15:47:55;12.00;86.10
8856;DHT22;4464;50.882;4.730;2023-04-25T15:50:24;12.00;88.50
8856;DHT22;4464;50.882;4.730;2023-04-25T15:52:50;12.30;87.20
8856;DHT22;4464;50.882;4.730;2023-04-25T15:55:19;12.30;86.40
8856;DHT22;4464;50.882;4.730;2023-04-25T15:57:51;12.40;86.40
8856;DHT22;4464;50.882;4.730;2023-04-25T16:00:17;12.40;86.40
8856;DHT22;4464;50.882;4.730;2023-04-25T16:02:47;12.60;86.40
8856;DHT22;4464;50.882;4.730;2023-04-25T16:05:15;12.80;86.10
8856;DHT22;4464;50.882;4.730;2023-04-25T16:07:42;12.60;86.30
8856;DHT22;4464;50.882;4.730;2023-04-25T16:10:11;12.40;85.60
8856;DHT22;4464;50.882;4.730;2023-04-25T16:12:40;12.10;86.30
8856;DHT22;4464;50.882;4.730;2023-04-25T16:15:11;12.10;87.50
8856;DHT22;4464;50.882;4.730;2023-04-25T16:17:36;11.90;86.90
8856;DHT22;4464;50.882;4.730;2023-04-25T16:20:02;12.00;87.30
8856;DHT22;4464;50.882;4.730;2023-04-25T16:22:38;11.90;87.40